Impacts METAR Board
IDs:

KATL - Atlanta/Hartsfield-J, GA, US

Updated at: 1300 UTC 25 Jun 2019
Potential Impact None Slight Moderate High
Time 25/01Z 25/02Z 25/03Z 25/04Z 25/05Z 25/06Z 25/07Z 25/08Z 25/09Z 25/10Z 25/11Z 25/12Z 25/13Z
Temp71 72 73 72 72 71 71 71 71 71 71 72 74
Dewpt68 68 68 68 68 68 68 68 66 66 66 67 68
Altim29.96 29.95 29.98 29.99 29.99 29.99 29.98 30.00 30.02 30.03 30.04 30.07 30.08
VIS10 10 10 10 10 10 10 10 10 10 10 10 10
CIG180 180 200 250 -- -- -- -- 250 250 250 220 220
CoverBKNBKNBKNBKNSCTSCTSCTSCTBKNBKNBKNBKNBKN
FltCatVFRVFRVFRVFRVFRVFRVFRVFRVFRVFRVFRVFRVFR
WX-RA------------------------
WDir240230220220230240260250270300290290290
WSpd5 6 6 4 4 3 6 7 8 7 7 7 7
WGst-- -- -- -- -- -- -- -- -- -- -- -- --
Raw hourly METARs
KATL 250052Z 24005KT 10SM -RA FEW075 FEW110 BKN180 BKN250 22/20 A2996 RMK AO2 TSE26 SLP135 TS DSIPTD CB DSNT SW NW P0000 T02170200
KATL 250152Z 23006KT 10SM FEW110 BKN180 BKN250 22/20 A2995 RMK AO2 RAE40 SLP133 P0001 T02220200
KATL 250252Z 22006KT 10SM FEW120 BKN200 BKN250 23/20 A2998 RMK AO2 SLP141 60001 T02280200 53000
KATL 250352Z 22004KT 10SM SCT150 SCT200 BKN250 22/20 A2999 RMK AO2 SLP145 T02220200
KATL 250452Z 23004KT 10SM FEW160 SCT200 SCT250 22/20 A2999 RMK AO2 SLP143 T02220200 403170217
KATL 250552Z 24003KT 10SM FEW160 SCT200 SCT250 22/20 A2999 RMK AO2 SLP143 60001 T02170200 10228 20217 50003
KATL 250652Z 26006KT 10SM FEW160 SCT200 SCT250 22/20 A2998 RMK AO2 SLP142 T02170200
KATL 250752Z 25007KT 10SM FEW150 SCT200 SCT250 22/20 A3000 RMK AO2 SLP147 T02170200
KATL 250852Z 27008KT 10SM FEW060 FEW140 SCT200 BKN250 22/19 A3002 RMK AO2 SLP155 T02170189 53012
KATL 250952Z 30007KT 10SM FEW050 FEW120 SCT200 BKN250 22/19 A3003 RMK AO2 SLP157 T02170189
KATL 251052Z 29007KT 10SM FEW050 FEW150 SCT200 BKN250 22/19 A3004 RMK AO2 SLP163 T02170189
KATL 251152Z 29007KT 10SM FEW120 SCT180 BKN220 BKN250 22/19 A3007 RMK AO2 SLP173 70028 T02220194 10222 20211 53015
KATL 251252Z 29007KT 10SM SCT120 SCT150 BKN220 BKN250 23/20 A3008 RMK AO2 SLP178 T02330200 $



Page loaded:  13:34 UTC  |   06:34 AM Pacific  |   07:34 AM Mountain  |   08:34 AM Central  |   09:34 AM Eastern

 

ADVISORIES

FORECASTS

FORECASTS

OBSERVATIONS

USER TOOLS

ABOUT US